sensor_id;sensor_type;location;lat;lon;timestamp;P1;durP1;ratioP1;P2;durP2;ratioP2
76296;SDS011;65104;52.994;6.552;2022-12-16T00:02:12;34.15;;;19.08;;
76296;SDS011;65104;52.994;6.552;2022-12-16T00:04:37;30.02;;;17.88;;
76296;SDS011;65104;52.994;6.552;2022-12-16T00:07:03;29.33;;;17.80;;
76296;SDS011;65104;52.994;6.552;2022-12-16T00:09:28;31.83;;;17.38;;
76296;SDS011;65104;52.994;6.552;2022-12-16T00:11:54;30.08;;;16.73;;
76296;SDS011;65104;52.994;6.552;2022-12-16T00:14:19;32.17;;;16.08;;
76296;SDS011;65104;52.994;6.552;2022-12-16T00:16:45;29.88;;;17.05;;
76296;SDS011;65104;52.994;6.552;2022-12-16T00:19:10;26.33;;;15.75;;
76296;SDS011;65104;52.994;6.552;2022-12-16T00:21:36;29.00;;;16.38;;
76296;SDS011;65104;52.994;6.552;2022-12-16T00:24:02;30.77;;;17.73;;
76296;SDS011;65104;52.994;6.552;2022-12-16T00:26:28;29.10;;;16.58;;
76296;SDS011;65104;52.994;6.552;2022-12-16T00:28:55;28.40;;;16.67;;
76296;SDS011;65104;52.994;6.552;2022-12-16T00:31:21;29.63;;;15.65;;
76296;SDS011;65104;52.994;6.552;2022-12-16T00:33:47;31.83;;;17.45;;
76296;SDS011;65104;52.994;6.552;2022-12-16T00:36:12;25.55;;;16.38;;
76296;SDS011;65104;52.994;6.552;2022-12-16T00:38:38;26.42;;;15.88;;
76296;SDS011;65104;52.994;6.552;2022-12-16T00:41:03;26.58;;;15.25;;
76296;SDS011;65104;52.994;6.552;2022-12-16T00:43:29;28.27;;;16.30;;
76296;SDS011;65104;52.994;6.552;2022-12-16T00:45:54;28.25;;;16.67;;
76296;SDS011;65104;52.994;6.552;2022-12-16T00:48:20;28.42;;;16.67;;
76296;SDS011;65104;52.994;6.552;2022-12-16T00:50:50;31.08;;;15.90;;
76296;SDS011;65104;52.994;6.552;2022-12-16T00:53:16;26.65;;;16.27;;
76296;SDS011;65104;52.994;6.552;2022-12-16T00:55:42;30.80;;;16.45;;
76296;SDS011;65104;52.994;6.552;2022-12-16T00:58:08;27.42;;;16.33;;
76296;SDS011;65104;52.994;6.552;2022-12-16T01:00:34;26.92;;;16.13;;
76296;SDS011;65104;52.994;6.552;2022-12-16T01:03:00;26.15;;;14.95;;
76296;SDS011;65104;52.994;6.552;2022-12-16T01:05:25;23.90;;;15.00;;
76296;SDS011;65104;52.994;6.552;2022-12-16T01:07:52;29.23;;;15.65;;
76296;SDS011;65104;52.994;6.552;2022-12-16T01:10:18;28.48;;;16.60;;
76296;SDS011;65104;52.994;6.552;2022-12-16T01:12:44;28.45;;;15.93;;
76296;SDS011;65104;52.994;6.552;2022-12-16T01:15:12;35.28;;;18.85;;
76296;SDS011;65104;52.994;6.552;2022-12-16T01:17:39;28.27;;;17.33;;
76296;SDS011;65104;52.994;6.552;2022-12-16T01:20:05;26.73;;;15.68;;
76296;SDS011;65104;52.994;6.552;2022-12-16T01:22:33;27.80;;;15.13;;
76296;SDS011;65104;52.994;6.552;2022-12-16T01:24:59;26.23;;;14.88;;
76296;SDS011;65104;52.994;6.552;2022-12-16T01:27:26;26.17;;;14.68;;
76296;SDS011;65104;52.994;6.552;2022-12-16T01:29:52;25.55;;;16.08;;
76296;SDS011;65104;52.994;6.552;2022-12-16T01:32:18;29.00;;;15.57;;
76296;SDS011;65104;52.994;6.552;2022-12-16T01:34:48;28.65;;;16.23;;
76296;SDS011;65104;52.994;6.552;2022-12-16T01:37:17;29.05;;;15.48;;
76296;SDS011;65104;52.994;6.552;2022-12-16T01:39:44;28.48;;;15.52;;
76296;SDS011;65104;52.994;6.552;2022-12-16T01:42:13;29.30;;;16.48;;
76296;SDS011;65104;52.994;6.552;2022-12-16T01:44:42;23.58;;;14.35;;
76296;SDS011;65104;52.994;6.552;2022-12-16T01:47:11;24.35;;;15.18;;
76296;SDS011;65104;52.994;6.552;2022-12-16T01:49:45;23.55;;;13.70;;
76296;SDS011;65104;52.994;6.552;2022-12-16T01:52:17;25.25;;;14.93;;
76296;SDS011;65104;52.994;6.552;2022-12-16T01:54:55;24.75;;;14.60;;
76296;SDS011;65104;52.994;6.552;2022-12-16T01:57:26;22.98;;;12.90;;
76296;SDS011;65104;52.994;6.552;2022-12-16T02:00:00;24.30;;;13.20;;
76296;SDS011;65104;52.994;6.552;2022-12-16T02:02:28;17.20;;;11.88;;
76296;SDS011;65104;52.994;6.552;2022-12-16T02:04:53;20.83;;;12.27;;
76296;SDS011;65104;52.994;6.552;2022-12-16T02:07:38;21.92;;;11.10;;
76296;SDS011;65104;52.994;6.552;2022-12-16T02:10:03;20.60;;;10.40;;
76296;SDS011;65104;52.994;6.552;2022-12-16T02:15:24;18.40;;;10.27;;
76296;SDS011;65104;52.994;6.552;2022-12-16T02:18:04;17.52;;;9.98;;
76296;SDS011;65104;52.994;6.552;2022-12-16T02:31:39;14.15;;;9.55;;
76296;SDS011;65104;52.994;6.552;2022-12-16T02:37:19;18.15;;;9.32;;
76296;SDS011;65104;52.994;6.552;2022-12-16T02:40:03;11.95;;;7.07;;
76296;SDS011;65104;52.994;6.552;2022-12-16T02:42:44;12.82;;;8.50;;
76296;SDS011;65104;52.994;6.552;2022-12-16T02:45:15;12.88;;;7.53;;
76296;SDS011;65104;52.994;6.552;2022-12-16T02:47:42;13.50;;;8.00;;
76296;SDS011;65104;52.994;6.552;2022-12-16T02:50:22;12.45;;;7.80;;
76296;SDS011;65104;52.994;6.552;2022-12-16T02:52:54;12.75;;;7.47;;
76296;SDS011;65104;52.994;6.552;2022-12-16T02:55:22;9.65;;;5.93;;
76296;SDS011;65104;52.994;6.552;2022-12-16T02:58:09;13.30;;;6.07;;
76296;SDS011;65104;52.994;6.552;2022-12-16T03:00:52;10.15;;;6.05;;
76296;SDS011;65104;52.994;6.552;2022-12-16T03:03:35;10.25;;;5.85;;
76296;SDS011;65104;52.994;6.552;2022-12-16T03:06:09;9.57;;;5.78;;
76296;SDS011;65104;52.994;6.552;2022-12-16T03:08:38;8.93;;;5.43;;
76296;SDS011;65104;52.994;6.552;2022-12-16T03:11:07;14.63;;;6.32;;
76296;SDS011;65104;52.994;6.552;2022-12-16T03:13:34;12.00;;;5.90;;
76296;SDS011;65104;52.994;6.552;2022-12-16T03:16:05;10.35;;;5.85;;
76296;SDS011;65104;52.994;6.552;2022-12-16T03:21:00;8.30;;;4.22;;
76296;SDS011;65104;52.994;6.552;2022-12-16T03:23:30;9.32;;;4.93;;
76296;SDS011;65104;52.994;6.552;2022-12-16T03:26:01;9.93;;;4.45;;
76296;SDS011;65104;52.994;6.552;2022-12-16T03:28:43;6.15;;;3.53;;
76296;SDS011;65104;52.994;6.552;2022-12-16T03:34:00;6.60;;;3.30;;
76296;SDS011;65104;52.994;6.552;2022-12-16T03:36:38;5.30;;;3.45;;
76296;SDS011;65104;52.994;6.552;2022-12-16T03:39:05;13.25;;;3.70;;
76296;SDS011;65104;52.994;6.552;2022-12-16T03:41:32;5.00;;;3.38;;
76296;SDS011;65104;52.994;6.552;2022-12-16T03:43:59;4.50;;;3.55;;
76296;SDS011;65104;52.994;6.552;2022-12-16T03:46:25;5.22;;;3.85;;
76296;SDS011;65104;52.994;6.552;2022-12-16T03:48:51;4.30;;;3.13;;
76296;SDS011;65104;52.994;6.552;2022-12-16T03:51:17;6.05;;;3.35;;
76296;SDS011;65104;52.994;6.552;2022-12-16T03:53:43;5.95;;;3.42;;
76296;SDS011;65104;52.994;6.552;2022-12-16T03:56:09;5.90;;;3.65;;
76296;SDS011;65104;52.994;6.552;2022-12-16T03:58:36;3.95;;;3.10;;
76296;SDS011;65104;52.994;6.552;2022-12-16T04:01:04;5.90;;;3.17;;
76296;SDS011;65104;52.994;6.552;2022-12-16T04:03:33;4.68;;;3.33;;
76296;SDS011;65104;52.994;6.552;2022-12-16T04:05:59;13.65;;;3.88;;
76296;SDS011;65104;52.994;6.552;2022-12-16T04:08:24;7.57;;;3.58;;
76296;SDS011;65104;52.994;6.552;2022-12-16T04:10:50;5.72;;;3.63;;
76296;SDS011;65104;52.994;6.552;2022-12-16T04:13:35;5.55;;;3.63;;
76296;SDS011;65104;52.994;6.552;2022-12-16T04:16:19;6.60;;;3.53;;
76296;SDS011;65104;52.994;6.552;2022-12-16T04:19:03;6.38;;;3.72;;
76296;SDS011;65104;52.994;6.552;2022-12-16T04:21:47;8.82;;;3.90;;
76296;SDS011;65104;52.994;6.552;2022-12-16T04:24:31;5.40;;;3.40;;
76296;SDS011;65104;52.994;6.552;2022-12-16T04:26:57;9.38;;;4.00;;
76296;SDS011;65104;52.994;6.552;2022-12-16T04:29:42;8.05;;;4.18;;
76296;SDS011;65104;52.994;6.552;2022-12-16T04:32:40;7.97;;;4.07;;
76296;SDS011;65104;52.994;6.552;2022-12-16T04:35:24;9.18;;;3.90;;
76296;SDS011;65104;52.994;6.552;2022-12-16T04:38:08;8.02;;;4.07;;
76296;SDS011;65104;52.994;6.552;2022-12-16T04:40:52;6.63;;;3.88;;
76296;SDS011;65104;52.994;6.552;2022-12-16T04:43:36;10.10;;;4.75;;
76296;SDS011;65104;52.994;6.552;2022-12-16T04:46:19;10.32;;;4.85;;
76296;SDS011;65104;52.994;6.552;2022-12-16T04:49:03;8.77;;;5.07;;
76296;SDS011;65104;52.994;6.552;2022-12-16T04:51:47;10.23;;;5.00;;
76296;SDS011;65104;52.994;6.552;2022-12-16T04:54:31;8.45;;;5.28;;
76296;SDS011;65104;52.994;6.552;2022-12-16T04:57:15;9.13;;;5.18;;
76296;SDS011;65104;52.994;6.552;2022-12-16T04:59:59;12.82;;;6.40;;
76296;SDS011;65104;52.994;6.552;2022-12-16T05:02:43;11.93;;;6.50;;
76296;SDS011;65104;52.994;6.552;2022-12-16T05:05:31;12.68;;;7.35;;
76296;SDS011;65104;52.994;6.552;2022-12-16T05:08:15;14.00;;;8.05;;
76296;SDS011;65104;52.994;6.552;2022-12-16T05:10:59;14.93;;;8.75;;
76296;SDS011;65104;52.994;6.552;2022-12-16T05:13:43;16.60;;;9.50;;
76296;SDS011;65104;52.994;6.552;2022-12-16T05:16:26;16.58;;;9.45;;
76296;SDS011;65104;52.994;6.552;2022-12-16T05:19:10;24.05;;;12.85;;
76296;SDS011;65104;52.994;6.552;2022-12-16T05:22:11;31.75;;;15.07;;
76296;SDS011;65104;52.994;6.552;2022-12-16T05:24:55;41.00;;;17.02;;
76296;SDS011;65104;52.994;6.552;2022-12-16T05:27:39;36.70;;;18.63;;
76296;SDS011;65104;52.994;6.552;2022-12-16T05:30:23;35.60;;;17.40;;
76296;SDS011;65104;52.994;6.552;2022-12-16T05:33:07;41.88;;;19.27;;
76296;SDS011;65104;52.994;6.552;2022-12-16T05:35:51;39.10;;;19.05;;
76296;SDS011;65104;52.994;6.552;2022-12-16T05:38:35;34.00;;;17.20;;
76296;SDS011;65104;52.994;6.552;2022-12-16T05:41:19;40.78;;;18.80;;
76296;SDS011;65104;52.994;6.552;2022-12-16T05:44:03;36.63;;;18.38;;
76296;SDS011;65104;52.994;6.552;2022-12-16T05:46:48;39.03;;;19.50;;
76296;SDS011;65104;52.994;6.552;2022-12-16T05:49:32;36.40;;;19.08;;
76296;SDS011;65104;52.994;6.552;2022-12-16T05:52:16;38.78;;;21.38;;
76296;SDS011;65104;52.994;6.552;2022-12-16T05:55:00;40.00;;;20.85;;
76296;SDS011;65104;52.994;6.552;2022-12-16T05:57:47;42.20;;;19.50;;
76296;SDS011;65104;52.994;6.552;2022-12-16T06:00:32;44.58;;;22.33;;
76296;SDS011;65104;52.994;6.552;2022-12-16T06:03:16;35.40;;;17.83;;
76296;SDS011;65104;52.994;6.552;2022-12-16T06:06:00;33.45;;;17.65;;
76296;SDS011;65104;52.994;6.552;2022-12-16T06:08:44;37.35;;;18.48;;
76296;SDS011;65104;52.994;6.552;2022-12-16T06:11:28;39.28;;;18.17;;
76296;SDS011;65104;52.994;6.552;2022-12-16T06:14:13;39.70;;;19.17;;
76296;SDS011;65104;52.994;6.552;2022-12-16T06:16:57;35.67;;;18.60;;
76296;SDS011;65104;52.994;6.552;2022-12-16T06:19:41;43.60;;;21.35;;
76296;SDS011;65104;52.994;6.552;2022-12-16T06:22:25;41.97;;;21.05;;
76296;SDS011;65104;52.994;6.552;2022-12-16T06:25:09;35.00;;;18.75;;
76296;SDS011;65104;52.994;6.552;2022-12-16T06:27:53;45.28;;;22.23;;
76296;SDS011;65104;52.994;6.552;2022-12-16T06:30:37;48.05;;;22.45;;
76296;SDS011;65104;52.994;6.552;2022-12-16T06:33:21;44.58;;;21.92;;
76296;SDS011;65104;52.994;6.552;2022-12-16T06:36:05;51.03;;;25.67;;
76296;SDS011;65104;52.994;6.552;2022-12-16T06:38:49;51.45;;;23.77;;
76296;SDS011;65104;52.994;6.552;2022-12-16T06:41:33;45.80;;;23.63;;
76296;SDS011;65104;52.994;6.552;2022-12-16T06:44:17;50.55;;;22.65;;
76296;SDS011;65104;52.994;6.552;2022-12-16T06:47:01;53.80;;;24.13;;
76296;SDS011;65104;52.994;6.552;2022-12-16T06:49:45;55.13;;;25.40;;
76296;SDS011;65104;52.994;6.552;2022-12-16T06:52:29;49.47;;;24.45;;
76296;SDS011;65104;52.994;6.552;2022-12-16T06:55:13;58.40;;;26.63;;
76296;SDS011;65104;52.994;6.552;2022-12-16T06:57:57;52.00;;;24.17;;
76296;SDS011;65104;52.994;6.552;2022-12-16T07:00:41;62.88;;;29.00;;
76296;SDS011;65104;52.994;6.552;2022-12-16T07:03:25;52.58;;;25.95;;
76296;SDS011;65104;52.994;6.552;2022-12-16T07:06:09;53.88;;;25.25;;
76296;SDS011;65104;52.994;6.552;2022-12-16T07:08:53;56.53;;;25.40;;
76296;SDS011;65104;52.994;6.552;2022-12-16T07:11:37;60.97;;;27.95;;
76296;SDS011;65104;52.994;6.552;2022-12-16T07:14:21;63.13;;;29.98;;
76296;SDS011;65104;52.994;6.552;2022-12-16T07:17:05;53.53;;;26.58;;
76296;SDS011;65104;52.994;6.552;2022-12-16T07:19:49;61.40;;;28.27;;
76296;SDS011;65104;52.994;6.552;2022-12-16T07:22:33;61.22;;;28.40;;
76296;SDS011;65104;52.994;6.552;2022-12-16T07:25:17;57.72;;;28.55;;
76296;SDS011;65104;52.994;6.552;2022-12-16T07:28:01;69.82;;;29.92;;
76296;SDS011;65104;52.994;6.552;2022-12-16T07:30:45;58.40;;;27.05;;
76296;SDS011;65104;52.994;6.552;2022-12-16T07:33:28;69.82;;;31.83;;
76296;SDS011;65104;52.994;6.552;2022-12-16T07:36:12;69.97;;;30.00;;
76296;SDS011;65104;52.994;6.552;2022-12-16T07:38:56;70.75;;;30.08;;
76296;SDS011;65104;52.994;6.552;2022-12-16T07:41:41;57.53;;;25.73;;
76296;SDS011;65104;52.994;6.552;2022-12-16T07:44:25;66.25;;;28.30;;
76296;SDS011;65104;52.994;6.552;2022-12-16T07:47:09;61.47;;;25.88;;
76296;SDS011;65104;52.994;6.552;2022-12-16T07:49:53;53.53;;;26.98;;
76296;SDS011;65104;52.994;6.552;2022-12-16T07:52:37;51.25;;;23.67;;
76296;SDS011;65104;52.994;6.552;2022-12-16T07:55:21;50.95;;;24.88;;
76296;SDS011;65104;52.994;6.552;2022-12-16T07:58:05;45.67;;;22.50;;
76296;SDS011;65104;52.994;6.552;2022-12-16T08:00:49;47.70;;;24.38;;
76296;SDS011;65104;52.994;6.552;2022-12-16T08:03:33;48.00;;;23.55;;
76296;SDS011;65104;52.994;6.552;2022-12-16T08:06:18;49.60;;;24.15;;
76296;SDS011;65104;52.994;6.552;2022-12-16T08:09:02;56.42;;;23.38;;
76296;SDS011;65104;52.994;6.552;2022-12-16T08:11:45;53.00;;;25.58;;
76296;SDS011;65104;52.994;6.552;2022-12-16T08:14:29;52.72;;;24.27;;
76296;SDS011;65104;52.994;6.552;2022-12-16T08:17:13;46.33;;;22.77;;
76296;SDS011;65104;52.994;6.552;2022-12-16T08:19:57;45.88;;;24.58;;
76296;SDS011;65104;52.994;6.552;2022-12-16T08:22:41;48.97;;;22.77;;
76296;SDS011;65104;52.994;6.552;2022-12-16T08:25:25;49.15;;;23.02;;
76296;SDS011;65104;52.994;6.552;2022-12-16T08:28:09;42.55;;;22.67;;
76296;SDS011;65104;52.994;6.552;2022-12-16T08:30:53;49.17;;;21.67;;
76296;SDS011;65104;52.994;6.552;2022-12-16T08:33:37;51.55;;;24.30;;
76296;SDS011;65104;52.994;6.552;2022-12-16T08:36:21;56.05;;;23.20;;
76296;SDS011;65104;52.994;6.552;2022-12-16T08:39:05;53.42;;;25.00;;
76296;SDS011;65104;52.994;6.552;2022-12-16T08:41:49;46.35;;;23.48;;
76296;SDS011;65104;52.994;6.552;2022-12-16T08:44:33;48.72;;;23.52;;
76296;SDS011;65104;52.994;6.552;2022-12-16T08:47:17;49.70;;;23.23;;
76296;SDS011;65104;52.994;6.552;2022-12-16T08:50:01;51.05;;;24.75;;
76296;SDS011;65104;52.994;6.552;2022-12-16T08:52:46;52.30;;;24.90;;
76296;SDS011;65104;52.994;6.552;2022-12-16T08:55:30;54.17;;;25.80;;
76296;SDS011;65104;52.994;6.552;2022-12-16T08:58:14;54.28;;;22.05;;
76296;SDS011;65104;52.994;6.552;2022-12-16T09:00:58;47.20;;;22.42;;
76296;SDS011;65104;52.994;6.552;2022-12-16T09:03:41;48.55;;;22.92;;
76296;SDS011;65104;52.994;6.552;2022-12-16T09:06:25;52.10;;;24.50;;
76296;SDS011;65104;52.994;6.552;2022-12-16T09:09:29;53.97;;;23.70;;
76296;SDS011;65104;52.994;6.552;2022-12-16T09:12:13;53.55;;;24.88;;
76296;SDS011;65104;52.994;6.552;2022-12-16T09:14:57;47.80;;;24.58;;
76296;SDS011;65104;52.994;6.552;2022-12-16T09:17:41;53.30;;;23.08;;
76296;SDS011;65104;52.994;6.552;2022-12-16T09:20:25;58.28;;;25.38;;
76296;SDS011;65104;52.994;6.552;2022-12-16T09:23:08;54.47;;;25.02;;
76296;SDS011;65104;52.994;6.552;2022-12-16T09:25:52;56.15;;;24.20;;
76296;SDS011;65104;52.994;6.552;2022-12-16T09:28:36;59.88;;;25.38;;
76296;SDS011;65104;52.994;6.552;2022-12-16T09:31:20;61.08;;;24.25;;
76296;SDS011;65104;52.994;6.552;2022-12-16T09:34:04;58.78;;;26.08;;
76296;SDS011;65104;52.994;6.552;2022-12-16T09:36:48;47.05;;;23.08;;
76296;SDS011;65104;52.994;6.552;2022-12-16T09:39:32;57.38;;;25.95;;
76296;SDS011;65104;52.994;6.552;2022-12-16T09:51:11;56.63;;;25.52;;
76296;SDS011;65104;52.994;6.552;2022-12-16T09:53:56;54.33;;;23.92;;
76296;SDS011;65104;52.994;6.552;2022-12-16T09:56:42;54.95;;;22.90;;
76296;SDS011;65104;52.994;6.552;2022-12-16T09:59:30;54.63;;;24.25;;
76296;SDS011;65104;52.994;6.552;2022-12-16T10:02:19;51.25;;;23.55;;
76296;SDS011;65104;52.994;6.552;2022-12-16T10:05:08;60.08;;;25.42;;
76296;SDS011;65104;52.994;6.552;2022-12-16T10:08:15;58.90;;;26.10;;
76296;SDS011;65104;52.994;6.552;2022-12-16T10:11:08;51.92;;;22.02;;
76296;SDS011;65104;52.994;6.552;2022-12-16T10:14:05;60.05;;;23.73;;
76296;SDS011;65104;52.994;6.552;2022-12-16T10:25:27;54.03;;;23.13;;
76296;SDS011;65104;52.994;6.552;2022-12-16T10:28:40;62.00;;;25.25;;
76296;SDS011;65104;52.994;6.552;2022-12-16T10:31:29;54.40;;;24.30;;
76296;SDS011;65104;52.994;6.552;2022-12-16T10:34:16;62.55;;;24.25;;
76296;SDS011;65104;52.994;6.552;2022-12-16T10:37:02;55.78;;;23.35;;
76296;SDS011;65104;52.994;6.552;2022-12-16T10:39:51;55.78;;;22.05;;
76296;SDS011;65104;52.994;6.552;2022-12-16T10:42:43;54.25;;;23.80;;
76296;SDS011;65104;52.994;6.552;2022-12-16T10:45:37;65.57;;;25.25;;
76296;SDS011;65104;52.994;6.552;2022-12-16T10:48:26;59.63;;;26.33;;
76296;SDS011;65104;52.994;6.552;2022-12-16T10:51:14;51.22;;;22.77;;
76296;SDS011;65104;52.994;6.552;2022-12-16T10:54:00;63.13;;;24.55;;
76296;SDS011;65104;52.994;6.552;2022-12-16T10:57:08;57.95;;;23.48;;
76296;SDS011;65104;52.994;6.552;2022-12-16T11:00:07;60.92;;;24.60;;
76296;SDS011;65104;52.994;6.552;2022-12-16T11:02:54;57.67;;;24.95;;
76296;SDS011;65104;52.994;6.552;2022-12-16T11:05:38;56.00;;;26.42;;
76296;SDS011;65104;52.994;6.552;2022-12-16T11:08:23;61.97;;;25.52;;
76296;SDS011;65104;52.994;6.552;2022-12-16T11:11:25;54.50;;;26.05;;
76296;SDS011;65104;52.994;6.552;2022-12-16T11:14:15;59.22;;;23.73;;
76296;SDS011;65104;52.994;6.552;2022-12-16T11:20:27;56.72;;;24.92;;
76296;SDS011;65104;52.994;6.552;2022-12-16T11:31:56;59.67;;;24.02;;
76296;SDS011;65104;52.994;6.552;2022-12-16T11:34:44;58.80;;;24.25;;
76296;SDS011;65104;52.994;6.552;2022-12-16T11:37:33;58.72;;;24.13;;
76296;SDS011;65104;52.994;6.552;2022-12-16T11:40:18;63.28;;;25.83;;
76296;SDS011;65104;52.994;6.552;2022-12-16T11:43:04;68.88;;;27.05;;
76296;SDS011;65104;52.994;6.552;2022-12-16T11:45:50;67.13;;;26.40;;
76296;SDS011;65104;52.994;6.552;2022-12-16T11:48:51;65.30;;;25.70;;
76296;SDS011;65104;52.994;6.552;2022-12-16T11:51:41;62.53;;;25.13;;
76296;SDS011;65104;52.994;6.552;2022-12-16T11:54:35;67.05;;;25.17;;
76296;SDS011;65104;52.994;6.552;2022-12-16T11:57:27;65.65;;;26.77;;
76296;SDS011;65104;52.994;6.552;2022-12-16T12:00:21;65.00;;;23.92;;
76296;SDS011;65104;52.994;6.552;2022-12-16T12:03:09;59.70;;;22.73;;
76296;SDS011;65104;52.994;6.552;2022-12-16T12:08:53;61.67;;;24.63;;
76296;SDS011;65104;52.994;6.552;2022-12-16T12:11:56;61.28;;;23.70;;
76296;SDS011;65104;52.994;6.552;2022-12-16T12:15:05;66.40;;;24.77;;
76296;SDS011;65104;52.994;6.552;2022-12-16T12:27:00;63.70;;;25.33;;
76296;SDS011;65104;52.994;6.552;2022-12-16T12:30:01;63.15;;;25.10;;
76296;SDS011;65104;52.994;6.552;2022-12-16T12:41:49;67.28;;;26.35;;
76296;SDS011;65104;52.994;6.552;2022-12-16T12:48:14;65.00;;;24.33;;
76296;SDS011;65104;52.994;6.552;2022-12-16T12:54:04;59.05;;;22.15;;
76296;SDS011;65104;52.994;6.552;2022-12-16T12:56:58;55.13;;;21.75;;
76296;SDS011;65104;52.994;6.552;2022-12-16T13:00:00;56.40;;;20.95;;
76296;SDS011;65104;52.994;6.552;2022-12-16T13:05:37;55.25;;;22.40;;
76296;SDS011;65104;52.994;6.552;2022-12-16T13:11:39;61.28;;;24.63;;
76296;SDS011;65104;52.994;6.552;2022-12-16T13:18:11;57.03;;;25.08;;
76296;SDS011;65104;52.994;6.552;2022-12-16T13:20:41;63.25;;;23.10;;
76296;SDS011;65104;52.994;6.552;2022-12-16T13:26:11;69.50;;;26.27;;
76296;SDS011;65104;52.994;6.552;2022-12-16T13:35:12;59.65;;;22.58;;
76296;SDS011;65104;52.994;6.552;2022-12-16T13:38:19;60.65;;;24.02;;
76296;SDS011;65104;52.994;6.552;2022-12-16T13:41:05;53.88;;;21.10;;
76296;SDS011;65104;52.994;6.552;2022-12-16T13:44:10;54.95;;;21.23;;
76296;SDS011;65104;52.994;6.552;2022-12-16T13:46:55;44.20;;;19.77;;
76296;SDS011;65104;52.994;6.552;2022-12-16T13:49:41;62.70;;;23.55;;
76296;SDS011;65104;52.994;6.552;2022-12-16T14:04:32;55.45;;;22.48;;
76296;SDS011;65104;52.994;6.552;2022-12-16T14:07:23;56.10;;;22.85;;
76296;SDS011;65104;52.994;6.552;2022-12-16T14:10:22;57.28;;;22.48;;
76296;SDS011;65104;52.994;6.552;2022-12-16T14:17:27;51.33;;;22.40;;
76296;SDS011;65104;52.994;6.552;2022-12-16T14:22:56;53.15;;;22.25;;
76296;SDS011;65104;52.994;6.552;2022-12-16T14:25:45;47.90;;;21.20;;
76296;SDS011;65104;52.994;6.552;2022-12-16T14:28:36;47.67;;;22.13;;
76296;SDS011;65104;52.994;6.552;2022-12-16T14:31:23;52.10;;;23.65;;
76296;SDS011;65104;52.994;6.552;2022-12-16T14:34:16;52.17;;;20.92;;
76296;SDS011;65104;52.994;6.552;2022-12-16T14:37:19;55.55;;;21.17;;
76296;SDS011;65104;52.994;6.552;2022-12-16T14:40:38;49.47;;;21.23;;
76296;SDS011;65104;52.994;6.552;2022-12-16T14:43:22;50.80;;;20.48;;
76296;SDS011;65104;52.994;6.552;2022-12-16T14:49:17;58.90;;;25.00;;
76296;SDS011;65104;52.994;6.552;2022-12-16T14:52:19;58.17;;;23.42;;
76296;SDS011;65104;52.994;6.552;2022-12-16T14:58:14;65.82;;;26.17;;
76296;SDS011;65104;52.994;6.552;2022-12-16T15:03:47;48.25;;;21.45;;
76296;SDS011;65104;52.994;6.552;2022-12-16T15:06:36;62.28;;;24.02;;
76296;SDS011;65104;52.994;6.552;2022-12-16T15:12:21;56.38;;;24.40;;
76296;SDS011;65104;52.994;6.552;2022-12-16T15:15:08;61.50;;;27.25;;
76296;SDS011;65104;52.994;6.552;2022-12-16T15:17:58;60.45;;;22.95;;
76296;SDS011;65104;52.994;6.552;2022-12-16T15:20:53;52.80;;;23.48;;
76296;SDS011;65104;52.994;6.552;2022-12-16T15:23:39;54.65;;;23.33;;
76296;SDS011;65104;52.994;6.552;2022-12-16T15:26:27;52.80;;;22.20;;
76296;SDS011;65104;52.994;6.552;2022-12-16T15:29:25;52.67;;;22.15;;
76296;SDS011;65104;52.994;6.552;2022-12-16T15:32:32;50.53;;;22.48;;
76296;SDS011;65104;52.994;6.552;2022-12-16T15:40:58;50.38;;;22.55;;
76296;SDS011;65104;52.994;6.552;2022-12-16T15:43:46;51.35;;;22.25;;
76296;SDS011;65104;52.994;6.552;2022-12-16T15:46:31;58.85;;;25.92;;
76296;SDS011;65104;52.994;6.552;2022-12-16T15:49:20;62.25;;;25.00;;
76296;SDS011;65104;52.994;6.552;2022-12-16T15:55:30;50.28;;;22.75;;
76296;SDS011;65104;52.994;6.552;2022-12-16T16:01:16;50.42;;;22.13;;
76296;SDS011;65104;52.994;6.552;2022-12-16T16:04:02;52.55;;;22.33;;
76296;SDS011;65104;52.994;6.552;2022-12-16T16:06:47;50.53;;;24.48;;
76296;SDS011;65104;52.994;6.552;2022-12-16T16:09:40;52.72;;;22.60;;
76296;SDS011;65104;52.994;6.552;2022-12-16T16:12:24;55.03;;;22.73;;
76296;SDS011;65104;52.994;6.552;2022-12-16T16:15:09;61.42;;;25.85;;
76296;SDS011;65104;52.994;6.552;2022-12-16T16:17:56;63.20;;;26.05;;
76296;SDS011;65104;52.994;6.552;2022-12-16T16:20:41;65.88;;;25.13;;
76296;SDS011;65104;52.994;6.552;2022-12-16T16:23:26;58.10;;;23.48;;
76296;SDS011;65104;52.994;6.552;2022-12-16T16:26:10;61.58;;;24.25;;
76296;SDS011;65104;52.994;6.552;2022-12-16T16:28:56;58.33;;;24.17;;
76296;SDS011;65104;52.994;6.552;2022-12-16T16:31:40;57.33;;;24.60;;
76296;SDS011;65104;52.994;6.552;2022-12-16T16:34:24;58.42;;;26.63;;
76296;SDS011;65104;52.994;6.552;2022-12-16T16:37:10;57.00;;;23.77;;
76296;SDS011;65104;52.994;6.552;2022-12-16T16:39:57;65.18;;;24.88;;
76296;SDS011;65104;52.994;6.552;2022-12-16T16:42:41;67.45;;;28.77;;
76296;SDS011;65104;52.994;6.552;2022-12-16T16:45:25;67.50;;;25.98;;
76296;SDS011;65104;52.994;6.552;2022-12-16T16:48:13;62.80;;;23.60;;
76296;SDS011;65104;52.994;6.552;2022-12-16T16:50:59;57.72;;;24.08;;
76296;SDS011;65104;52.994;6.552;2022-12-16T16:53:45;54.83;;;22.75;;
76296;SDS011;65104;52.994;6.552;2022-12-16T16:56:30;60.33;;;22.88;;
76296;SDS011;65104;52.994;6.552;2022-12-16T16:59:16;50.22;;;22.00;;
76296;SDS011;65104;52.994;6.552;2022-12-16T17:02:00;55.88;;;23.15;;
76296;SDS011;65104;52.994;6.552;2022-12-16T17:04:45;52.33;;;22.13;;
76296;SDS011;65104;52.994;6.552;2022-12-16T17:07:29;50.50;;;21.90;;
76296;SDS011;65104;52.994;6.552;2022-12-16T17:10:14;59.75;;;23.83;;
76296;SDS011;65104;52.994;6.552;2022-12-16T17:12:59;63.20;;;22.85;;
76296;SDS011;65104;52.994;6.552;2022-12-16T17:15:43;57.75;;;22.92;;
76296;SDS011;65104;52.994;6.552;2022-12-16T17:18:26;63.00;;;23.17;;
76296;SDS011;65104;52.994;6.552;2022-12-16T17:21:10;55.85;;;21.60;;
76296;SDS011;65104;52.994;6.552;2022-12-16T17:23:54;48.65;;;20.13;;
76296;SDS011;65104;52.994;6.552;2022-12-16T17:26:42;54.05;;;20.55;;
76296;SDS011;65104;52.994;6.552;2022-12-16T17:29:26;52.42;;;19.85;;
76296;SDS011;65104;52.994;6.552;2022-12-16T17:32:10;49.10;;;18.55;;
76296;SDS011;65104;52.994;6.552;2022-12-16T17:34:54;54.03;;;20.70;;
76296;SDS011;65104;52.994;6.552;2022-12-16T17:37:39;54.50;;;20.77;;
76296;SDS011;65104;52.994;6.552;2022-12-16T17:40:22;57.75;;;21.60;;
76296;SDS011;65104;52.994;6.552;2022-12-16T17:43:06;52.78;;;20.10;;
76296;SDS011;65104;52.994;6.552;2022-12-16T17:46:05;51.70;;;18.35;;
76296;SDS011;65104;52.994;6.552;2022-12-16T17:48:53;53.70;;;18.42;;
76296;SDS011;65104;52.994;6.552;2022-12-16T17:51:39;49.50;;;17.60;;
76296;SDS011;65104;52.994;6.552;2022-12-16T17:54:22;51.00;;;17.58;;
76296;SDS011;65104;52.994;6.552;2022-12-16T17:57:07;42.28;;;17.52;;
76296;SDS011;65104;52.994;6.552;2022-12-16T17:59:51;55.33;;;18.33;;
76296;SDS011;65104;52.994;6.552;2022-12-16T18:02:35;49.72;;;18.52;;
76296;SDS011;65104;52.994;6.552;2022-12-16T18:05:19;63.65;;;20.02;;
76296;SDS011;65104;52.994;6.552;2022-12-16T18:08:03;44.72;;;19.08;;
76296;SDS011;65104;52.994;6.552;2022-12-16T18:10:50;53.80;;;19.10;;
76296;SDS011;65104;52.994;6.552;2022-12-16T18:13:37;61.78;;;25.70;;
76296;SDS011;65104;52.994;6.552;2022-12-16T18:16:21;57.40;;;19.02;;